createdAt,value
2018-03-25T03:32:39.503Z,-2.60
2018-03-25T03:35:07.140Z,-2.60
2018-03-25T03:37:34.803Z,-2.60
2018-03-25T03:40:02.443Z,-2.60
2018-03-25T03:42:30.115Z,-2.60
2018-03-25T03:44:57.805Z,-2.50
2018-03-25T03:47:25.440Z,-2.60
2018-03-25T03:49:53.072Z,-2.60
2018-03-25T03:52:21.497Z,-2.70
2018-03-25T03:54:49.133Z,-2.70
2018-03-25T03:57:16.911Z,-2.70
2018-03-25T03:59:44.549Z,-2.70
2018-03-25T04:02:12.196Z,-2.70
2018-03-25T04:04:39.863Z,-2.70
2018-03-25T04:07:07.512Z,-2.60
2018-03-25T04:09:35.960Z,-2.70
2018-03-25T04:12:03.602Z,-2.70
2018-03-25T04:14:31.241Z,-2.70
2018-03-25T04:16:58.897Z,-2.70
2018-03-25T04:19:26.562Z,-2.70
2018-03-25T04:21:54.220Z,-2.70
2018-03-25T04:24:21.852Z,-2.70
2018-03-25T04:26:50.292Z,-2.80
2018-03-25T04:29:17.932Z,-2.80
2018-03-25T04:31:45.567Z,-2.70
2018-03-25T04:34:13.240Z,-2.70
2018-03-25T04:36:40.876Z,-2.70
2018-03-25T04:39:08.513Z,-2.70
2018-03-25T04:41:36.177Z,-2.70
2018-03-25T04:44:04.576Z,-2.80
2018-03-25T04:46:32.267Z,-2.80
2018-03-25T04:48:59.897Z,-2.90
2018-03-25T04:51:27.537Z,-2.90
2018-03-25T04:53:55.979Z,-2.90
2018-03-25T04:56:23.616Z,-2.90
2018-03-25T04:58:51.252Z,-2.90
2018-03-25T05:01:19.675Z,-2.90
2018-03-25T05:03:47.313Z,-3.00
2018-03-25T05:06:14.993Z,-2.90
2018-03-25T05:08:42.633Z,-2.90
2018-03-25T05:11:10.276Z,-2.90
2018-03-25T05:13:37.956Z,-3.00
2018-03-25T05:16:05.592Z,-2.90
2018-03-25T05:18:33.232Z,-2.90
2018-03-25T05:21:00.904Z,-2.90
2018-03-25T05:23:29.317Z,-2.80
2018-03-25T05:25:56.952Z,-2.80
2018-03-25T05:28:24.608Z,-2.80
2018-03-25T05:30:53.013Z,-2.70
2018-03-25T05:33:20.681Z,-2.70
2018-03-25T05:35:48.317Z,-2.60
2018-03-25T05:38:15.952Z,-2.60
2018-03-25T05:40:44.381Z,-2.50
2018-03-25T05:43:12.013Z,-2.50
2018-03-25T05:45:39.691Z,-2.50
2018-03-25T05:48:07.329Z,-2.50
2018-03-25T05:50:34.970Z,-2.40
2018-03-25T05:53:03.426Z,-2.30
2018-03-25T05:55:31.060Z,-2.40
2018-03-25T05:57:58.692Z,-2.30
2018-03-25T06:00:27.396Z,-2.20
2018-03-25T06:02:55.128Z,-2.20
2018-03-25T06:05:23.535Z,-2.10
2018-03-25T06:07:51.219Z,-2.10
2018-03-25T06:10:18.854Z,-2.10
2018-03-25T06:12:46.496Z,-2.10
2018-03-25T06:15:14.156Z,-2.20
2018-03-25T06:17:41.792Z,-2.20
2018-03-25T06:20:09.442Z,-2.10
2018-03-25T06:22:37.100Z,-2.00
2018-03-25T06:25:04.742Z,-1.80
2018-03-25T06:27:32.424Z,-1.70
2018-03-25T06:30:00.093Z,-1.60
2018-03-25T06:32:27.732Z,-1.60
2018-03-25T06:34:55.420Z,-1.50
2018-03-25T06:37:23.829Z,-1.30
2018-03-25T06:39:51.469Z,-1.30
2018-03-25T06:42:19.892Z,-1.20
2018-03-25T06:44:47.524Z,-1.20
2018-03-25T06:47:15.205Z,-1.10
2018-03-25T06:49:42.840Z,-0.80
2018-03-25T06:52:10.472Z,-0.70
2018-03-25T06:54:38.140Z,-0.60
2018-03-25T06:57:06.540Z,-0.20
2018-03-25T06:59:34.404Z,-0.30
2018-03-25T07:02:01.976Z,-0.10
2018-03-25T07:04:29.561Z,0.00
2018-03-25T07:06:57.257Z,0.20
2018-03-25T07:09:24.896Z,0.40
2018-03-25T07:11:52.526Z,0.60
2018-03-25T07:14:20.193Z,0.60
2018-03-25T07:16:47.821Z,0.70
2018-03-25T07:19:15.452Z,1.00
2018-03-25T07:21:43.108Z,1.20
2018-03-25T07:24:10.772Z,1.40
2018-03-25T07:26:38.410Z,1.50
2018-03-25T07:29:07.608Z,1.60
2018-03-25T07:31:35.241Z,1.60
2018-03-25T07:34:02.875Z,1.60
2018-03-25T07:36:30.532Z,1.60
2018-03-25T07:38:58.963Z,1.70
2018-03-25T07:41:26.592Z,1.70
2018-03-25T07:43:54.224Z,1.70
2018-03-25T07:46:22.643Z,1.80
2018-03-25T07:48:50.313Z,1.70
2018-03-25T07:51:17.953Z,2.00
2018-03-25T07:53:45.587Z,2.00
2018-03-25T07:56:14.046Z,2.40
2018-03-25T07:58:41.684Z,2.40
2018-03-25T08:01:09.322Z,2.50
2018-03-25T08:03:36.996Z,2.40
2018-03-25T08:06:04.622Z,2.40
2018-03-25T08:08:32.257Z,2.50
2018-03-25T08:11:00.708Z,2.50
2018-03-25T08:13:28.338Z,2.50
2018-03-25T08:15:55.977Z,2.50
2018-03-25T08:18:23.652Z,2.50
2018-03-25T08:20:51.361Z,2.50
2018-03-25T08:23:18.993Z,2.50
2018-03-25T08:25:46.669Z,2.50
2018-03-25T08:28:14.303Z,2.60
2018-03-25T08:30:41.932Z,2.80
2018-03-25T08:33:10.376Z,2.80
2018-03-25T08:35:38.015Z,2.80
2018-03-25T08:38:05.666Z,2.90
2018-03-25T08:40:33.389Z,3.00
2018-03-25T08:43:01.818Z,3.20
2018-03-25T08:45:29.452Z,3.10
2018-03-25T08:47:57.125Z,3.20
2018-03-25T08:50:24.780Z,3.30
2018-03-25T08:52:52.407Z,3.40
2018-03-25T08:55:20.865Z,3.60
2018-03-25T08:57:48.504Z,3.60
2018-03-25T09:00:16.140Z,3.70
2018-03-25T09:02:43.816Z,3.90
2018-03-25T09:05:11.449Z,4.10
2018-03-25T09:07:39.081Z,4.20
2018-03-25T09:10:07.537Z,4.60
2018-03-25T09:12:35.176Z,4.50
2018-03-25T09:15:02.855Z,4.90
2018-03-25T09:17:30.536Z,5.00
2018-03-25T09:19:58.933Z,5.30
2018-03-25T09:22:27.340Z,5.20
2018-03-25T09:24:54.992Z,5.10
2018-03-25T09:27:22.621Z,5.30
2018-03-25T09:29:51.012Z,5.50
2018-03-25T09:32:18.694Z,5.40
2018-03-25T09:34:46.327Z,5.50
2018-03-25T09:37:14.730Z,5.70
2018-03-25T09:39:42.392Z,5.70
2018-03-25T09:42:10.020Z,5.60
2018-03-25T09:44:38.449Z,5.60
2018-03-25T09:47:06.080Z,5.60
2018-03-25T09:49:33.707Z,5.50
2018-03-25T09:52:02.162Z,5.60
2018-03-25T09:54:30.594Z,5.60
2018-03-25T09:56:58.228Z,5.60
2018-03-25T09:59:26.660Z,5.60
2018-03-25T10:05:01.841Z,5.60
2018-03-25T10:07:29.472Z,5.80
2018-03-25T10:09:57.104Z,5.90
2018-03-25T10:12:24.780Z,5.90
2018-03-25T10:14:52.408Z,5.90
2018-03-25T10:17:21.984Z,5.80
2018-03-25T10:19:49.673Z,5.80
2018-03-25T10:22:18.117Z,5.90
2018-03-25T10:24:45.749Z,5.90
2018-03-25T10:27:13.417Z,6.00
2018-03-25T10:29:41.049Z,6.00
2018-03-25T10:32:08.687Z,6.00
2018-03-25T10:34:37.108Z,6.40
2018-03-25T10:37:04.737Z,6.30
2018-03-25T10:39:33.136Z,6.50
2018-03-25T10:42:00.816Z,6.50
2018-03-25T10:44:28.452Z,6.50
2018-03-25T10:46:56.091Z,6.40
2018-03-25T10:49:24.627Z,6.20
2018-03-25T10:51:52.264Z,6.20
2018-03-25T10:54:19.899Z,6.30
2018-03-25T10:56:48.321Z,6.50
2018-03-25T10:59:15.953Z,6.50
2018-03-25T11:01:43.625Z,6.60
2018-03-25T11:04:11.264Z,6.80
2018-03-25T11:06:38.893Z,6.80
2018-03-25T11:09:06.564Z,6.70
2018-03-25T11:11:34.964Z,6.80
2018-03-25T11:14:02.591Z,6.80
2018-03-25T11:16:30.277Z,6.80
2018-03-25T11:18:58.676Z,7.00
2018-03-25T11:21:26.304Z,7.00
2018-03-25T11:23:54.745Z,7.00
2018-03-25T11:26:22.388Z,7.00
2018-03-25T11:28:50.024Z,7.00
2018-03-25T11:31:17.696Z,6.90
2018-03-25T11:33:45.341Z,7.00
2018-03-25T11:36:12.972Z,7.00
2018-03-25T11:38:40.650Z,7.20
2018-03-25T11:41:10.916Z,7.20
2018-03-25T11:43:38.550Z,7.20
2018-03-25T11:46:06.232Z,7.20
2018-03-25T11:48:33.866Z,7.10
2018-03-25T11:51:01.505Z,7.40
2018-03-25T11:53:30.030Z,7.30
2018-03-25T11:55:57.665Z,7.30
2018-03-25T11:58:25.301Z,7.20
2018-03-25T12:00:53.745Z,7.20
2018-03-25T12:03:21.432Z,7.20
2018-03-25T12:05:49.077Z,7.40
2018-03-25T12:08:16.752Z,7.30
2018-03-25T12:10:44.396Z,7.50
2018-03-25T12:13:12.028Z,7.50
2018-03-25T12:15:39.701Z,7.50
2018-03-25T12:18:07.341Z,7.40
2018-03-25T12:20:34.980Z,7.40
2018-03-25T12:23:03.424Z,7.50
2018-03-25T12:25:31.064Z,7.40
2018-03-25T12:27:58.700Z,7.30
2018-03-25T12:30:26.377Z,7.30
2018-03-25T12:32:54.008Z,7.80
2018-03-25T12:35:21.641Z,7.70
2018-03-25T12:37:49.392Z,7.70
2018-03-25T12:40:17.046Z,7.60
2018-03-25T12:42:44.677Z,7.70
2018-03-25T12:45:12.338Z,7.70
2018-03-25T12:47:39.972Z,7.60
2018-03-25T12:50:07.613Z,7.60
2018-03-25T12:52:36.032Z,7.90
2018-03-25T12:55:03.712Z,7.90
2018-03-25T12:57:31.388Z,8.20
2018-03-25T12:59:59.026Z,8.30
2018-03-25T13:02:26.662Z,8.30
2018-03-25T13:04:54.337Z,8.40
2018-03-25T13:07:21.978Z,8.50
2018-03-25T13:09:49.608Z,8.50
2018-03-25T13:12:18.059Z,8.30
2018-03-25T13:14:46.498Z,8.30
2018-03-25T13:17:14.138Z,8.20
2018-03-25T13:19:42.581Z,8.60
2018-03-25T13:22:10.253Z,8.60
2018-03-25T13:24:37.892Z,8.60
2018-03-25T13:27:05.544Z,8.60
2018-03-25T13:29:33.176Z,8.60
2018-03-25T13:32:00.858Z,8.40
2018-03-25T13:34:28.549Z,8.30
2018-03-25T13:36:56.201Z,8.40
2018-03-25T13:39:24.633Z,8.50
2018-03-25T13:41:52.308Z,8.50
2018-03-25T13:44:19.936Z,8.60
2018-03-25T13:46:48.327Z,8.50
2018-03-25T13:49:16.001Z,8.50
2018-03-25T13:51:43.637Z,8.90
2018-03-25T13:54:12.029Z,8.80
2018-03-25T13:56:39.693Z,8.70
2018-03-25T13:59:07.322Z,8.70
2018-03-25T14:01:34.954Z,8.50
2018-03-25T14:04:02.628Z,8.50
2018-03-25T14:06:30.268Z,8.60
2018-03-25T14:08:57.973Z,8.60
2018-03-25T14:11:26.392Z,8.80
2018-03-25T14:13:54.023Z,8.80
2018-03-25T14:16:21.708Z,8.90
2018-03-25T14:18:49.331Z,8.80
2018-03-25T14:21:17.733Z,8.70
2018-03-25T14:23:45.412Z,8.70
2018-03-25T14:26:13.044Z,8.70
2018-03-25T14:28:40.677Z,8.70
2018-03-25T14:31:08.343Z,8.50
2018-03-25T14:33:35.971Z,8.40
2018-03-25T14:36:03.600Z,8.50
2018-03-25T14:38:31.276Z,8.60
2018-03-25T14:40:58.904Z,8.60
2018-03-25T14:43:26.545Z,8.50
2018-03-25T14:45:54.213Z,8.40
2018-03-25T14:48:22.604Z,8.70
2018-03-25T14:50:50.253Z,8.60
2018-03-25T14:53:18.676Z,8.60
2018-03-25T14:55:46.304Z,8.60
2018-03-25T14:58:13.948Z,8.60
2018-03-25T15:00:42.384Z,8.50
2018-03-25T15:03:10.016Z,8.40
2018-03-25T15:05:37.649Z,8.40
2018-03-25T15:08:06.113Z,8.40
2018-03-25T15:10:33.761Z,8.40
2018-03-25T15:13:01.388Z,8.50
2018-03-25T15:15:29.040Z,8.50
2018-03-25T15:17:56.673Z,8.70
2018-03-25T15:20:25.134Z,8.70
2018-03-25T15:22:52.764Z,8.70
2018-03-25T15:25:20.394Z,8.60
2018-03-25T15:27:48.064Z,8.60
2018-03-25T15:30:15.693Z,8.60
2018-03-25T15:32:44.100Z,8.30
2018-03-25T15:35:11.757Z,8.30
2018-03-25T15:37:39.388Z,8.30
2018-03-25T15:40:07.785Z,8.20
2018-03-25T15:42:35.464Z,8.10
2018-03-25T15:45:03.091Z,8.10
2018-03-25T15:47:31.484Z,8.20
2018-03-25T15:49:59.135Z,8.20
2018-03-25T15:52:26.804Z,8.20
2018-03-25T15:54:54.499Z,8.20
2018-03-25T15:57:22.128Z,8.20
2018-03-25T15:59:49.809Z,8.10
2018-03-25T16:02:17.470Z,8.10
2018-03-25T16:04:45.092Z,8.10
2018-03-25T16:07:13.533Z,8.10
2018-03-25T16:09:41.257Z,8.00
2018-03-25T16:12:08.837Z,8.00
2018-03-25T16:14:37.288Z,7.80
2018-03-25T16:17:04.935Z,7.80
2018-03-25T16:19:33.337Z,7.70
2018-03-25T16:22:01.068Z,7.70
2018-03-25T16:24:29.452Z,7.70
2018-03-25T16:26:57.850Z,7.70
2018-03-25T16:29:25.501Z,7.70
2018-03-25T16:31:53.132Z,7.60
2018-03-25T16:34:21.533Z,7.40
2018-03-25T16:36:49.212Z,7.40
2018-03-25T16:39:16.844Z,7.30
2018-03-25T16:41:45.256Z,7.40
2018-03-25T16:44:12.944Z,7.30
2018-03-25T16:46:40.572Z,7.40
2018-03-25T16:49:08.199Z,7.40
2018-03-25T16:51:35.906Z,7.30
2018-03-25T16:54:04.305Z,7.10
2018-03-25T16:56:31.936Z,7.10
2018-03-25T16:58:59.612Z,7.00
2018-03-25T17:01:27.245Z,6.80
2018-03-25T17:03:54.877Z,6.80
2018-03-25T17:06:23.321Z,6.60
2018-03-25T17:08:50.948Z,6.50
2018-03-25T17:11:18.576Z,6.50
2018-03-25T17:13:46.997Z,6.30
2018-03-25T17:16:14.632Z,6.30
2018-03-25T17:18:42.305Z,6.20
2018-03-25T17:21:09.933Z,6.10
2018-03-25T17:23:38.329Z,6.00
2018-03-25T17:26:05.988Z,6.00
2018-03-25T17:28:33.616Z,5.80
2018-03-25T17:31:01.248Z,5.80
2018-03-25T17:33:28.916Z,5.80
2018-03-25T17:35:56.544Z,5.70
2018-03-25T17:38:24.171Z,5.50
2018-03-25T17:40:52.604Z,5.20
2018-03-25T17:43:20.235Z,5.20
2018-03-25T17:45:47.880Z,5.00
2018-03-25T17:48:15.560Z,4.80
2018-03-25T17:50:43.194Z,4.60
2018-03-25T17:53:11.592Z,4.20
2018-03-25T17:55:39.268Z,4.10
2018-03-25T17:58:06.981Z,4.00
2018-03-25T18:00:34.653Z,3.90
2018-03-25T18:03:03.049Z,3.50
2018-03-25T18:05:30.681Z,3.50
2018-03-25T18:07:58.333Z,3.40
2018-03-25T18:10:25.964Z,3.30
2018-03-25T18:12:53.592Z,3.10
2018-03-25T18:15:21.269Z,3.00
2018-03-25T18:17:48.900Z,2.90
2018-03-25T18:20:16.548Z,2.90
2018-03-25T18:22:44.984Z,2.80
2018-03-25T18:25:12.616Z,2.80
2018-03-25T18:27:40.252Z,2.80
2018-03-25T18:30:08.684Z,2.60
2018-03-25T18:32:36.312Z,2.60
2018-03-25T18:35:03.981Z,2.60
2018-03-25T18:37:31.672Z,2.60
2018-03-25T18:39:59.305Z,2.50
2018-03-25T18:42:26.937Z,2.40
2018-03-25T18:44:55.376Z,2.40
2018-03-25T18:47:23.004Z,2.30
2018-03-25T18:49:50.646Z,2.30
2018-03-25T18:52:18.320Z,2.30
2018-03-25T18:54:45.944Z,2.10
2018-03-25T18:57:14.348Z,2.00
2018-03-25T18:59:42.021Z,2.00
2018-03-25T19:02:09.704Z,1.90
2018-03-25T19:04:37.340Z,1.80
2018-03-25T19:07:05.012Z,1.80
2018-03-25T19:09:32.641Z,1.70
2018-03-25T19:12:00.277Z,1.60
2018-03-25T19:14:27.965Z,1.70
2018-03-25T19:16:55.592Z,1.60
2018-03-25T19:19:23.292Z,1.50
2018-03-25T19:21:50.949Z,1.40
2018-03-25T19:24:18.580Z,1.30
2018-03-25T19:26:46.981Z,1.40
2018-03-25T19:29:15.368Z,1.30
2018-03-25T19:31:44.378Z,1.40
2018-03-25T19:34:12.030Z,1.30
2018-03-25T19:36:39.692Z,1.30
2018-03-25T19:39:07.964Z,1.30
2018-03-25T19:41:35.636Z,1.20
2018-03-25T19:44:03.269Z,1.10
2018-03-25T19:46:30.909Z,1.00
2018-03-25T19:48:59.356Z,1.00
2018-03-25T19:51:26.989Z,1.00
2018-03-25T19:53:54.620Z,1.00
2018-03-25T19:56:23.064Z,1.00
2018-03-25T19:58:50.705Z,1.10
2018-03-25T20:01:18.338Z,1.00
2018-03-25T20:03:45.994Z,1.10
2018-03-25T20:06:13.629Z,1.10
2018-03-25T20:08:42.028Z,1.20
2018-03-25T20:11:09.729Z,1.20
2018-03-25T20:13:37.366Z,1.20
2018-03-25T20:16:04.992Z,1.40
2018-03-25T20:18:33.413Z,1.40
2018-03-25T20:21:01.049Z,1.40
2018-03-25T20:23:28.681Z,1.40
2018-03-25T20:25:56.352Z,1.40
2018-03-25T20:28:24.751Z,1.30
2018-03-25T20:30:52.392Z,1.30
2018-03-25T20:33:20.097Z,1.20
2018-03-25T20:35:47.732Z,1.30
2018-03-25T20:38:16.129Z,1.30
2018-03-25T20:40:43.808Z,1.30
2018-03-25T20:43:11.440Z,1.30
2018-03-25T20:45:39.072Z,1.20
2018-03-25T20:48:07.514Z,1.10
2018-03-25T20:50:35.144Z,1.00
2018-03-25T20:53:02.776Z,1.00
2018-03-25T20:55:31.192Z,0.90
2018-03-25T20:57:58.836Z,0.90
2018-03-25T21:00:26.481Z,0.90
2018-03-25T21:02:54.228Z,0.90
2018-03-25T21:05:22.624Z,1.00
2018-03-25T21:07:50.257Z,1.00
2018-03-25T21:10:17.929Z,1.00
2018-03-25T21:12:46.324Z,1.00
2018-03-25T21:15:13.956Z,1.00
2018-03-25T21:17:41.624Z,0.90
2018-03-25T21:20:10.017Z,0.90
2018-03-25T21:22:37.649Z,0.90
2018-03-25T21:25:05.320Z,0.90
2018-03-25T21:27:33.716Z,0.90
2018-03-25T21:30:01.348Z,0.80
2018-03-25T21:32:29.026Z,0.80
2018-03-25T21:34:57.421Z,0.90
2018-03-25T21:37:25.053Z,0.90
2018-03-25T21:39:53.512Z,0.90
2018-03-25T21:42:21.158Z,0.90
2018-03-25T21:44:48.791Z,0.80
2018-03-25T21:47:16.449Z,0.80
2018-03-25T21:49:44.080Z,0.80
2018-03-25T21:52:12.472Z,0.90
2018-03-25T21:54:40.124Z,0.90
2018-03-25T21:57:08.520Z,0.80
2018-03-25T21:59:36.165Z,0.80
2018-03-25T22:02:03.827Z,0.70
2018-03-25T22:04:32.220Z,0.50
2018-03-25T22:06:59.992Z,0.40
2018-03-25T22:09:27.628Z,0.40
2018-03-25T22:11:55.261Z,0.40
2018-03-25T22:14:22.943Z,0.50
2018-03-25T22:16:51.341Z,0.30
2018-03-25T22:19:18.973Z,0.30
2018-03-25T22:21:47.396Z,0.40
2018-03-25T22:24:15.028Z,0.40
2018-03-25T22:26:42.706Z,0.30
2018-03-25T22:29:10.339Z,0.30
